Biel, Switzerland
Current Conditions -  °F | °C
As of 9:20 AM on Saturday 29 Nov 2014 (Local Time) from LSZG Reporting Station
Haze Haze  
Wind Chill: 32°   Ceiling: 300
Heat Index: 37°   Visibility: 1.8mi
Dew Point: 37°   Wind: 7mph
Humidity: 100%   Direction: 50°NE
Pressure: 29.88"   Gusts: NA
Location:  47.15°N, 7.24°E
Report Text: LSZG 290820Z 05006KT 3000 BR OVC003 03/03 Q1012 NOSIG
Loading
Personal Weather Stations






























Interactive Weather Map New forecast layout! Learn more

10-Day Weather Forecast

Advertisements
Track Severe Weather on mobile